Aérodrome :
LOGIN :

S'inscrire | Disclaimer

   EN    FR    IT 

 










Légende :    VFR   VFR Marginal   IFR   IFR Intensif   IFR Très Intensif
Visi : 
Plafond : 
>= 8 km
>= 3000ft
5 à 8 km
1000 à 3000 ft
1500m à 5 km
500 à 1000 ft
800 à 1500m
200 à 500 ft
< 800m
< 200 ft
Symboles :   Orages  Brouillard  Fortes neiges  Fortes précipitations  Vent > 20 kt
SIGMETs :   Divers  Orages  Givrage  Turbulence  Onde Orograph.  Cendres Volcan.






- Altitude de l'aérodrome : 2425 ft


ETHA - Altenstadt Army

DERNIER METAR :
  • 291220Z 08006KT 9999 BKN010 05/02 Q1013 GRN GRN BECMG BLU+

METARs EXPIRÉS :
  • 291131Z 08006KT 8000 FEW005 BKN010 05/02 Q1013 GRN GRN
  • 291020Z VRB03KT 8000 SCT005 BKN010 05/02 Q1014 GRN WHT TEMPO RED
  • 290920Z VRB03KT 6000 SCT005 BKN010 04/02 Q1015 GRN WHT TEMPO RED
  • 290820Z 08002KT 2000 BR OVC005 03/02 Q1016 YLO WHT TEMPO RED

TAF TAF ETHA
Valide du 29 à 12h jusqu'au 29 à 21h UTC


291129Z 2912/2921 07005KT 8000 NSW BKN010
BECMG 2913/2915 12003KT 9999 NSW SCT015



MET'MAP, la Météo Aéronautique d'un coup d'oeil ! - Copyright ORBIFLY Décembre 2007 - Disclaimer

ORBIFLY MET'MAP TEAM :

Programmation & Développement : Alexandra Zaïnal
Sur une idée originale de : Baudouin d'Aumeries
Soutien technique & logistique : Manuel Goepfert
Assistance : Marc-Olivier Méhu




SOURCES & CREDITS :

   NOAA